Time;durP1;ratioP1;P1;durP2;ratioP2;P2;SDS_P1;SDS_P2;PMS_P1;PMS_P2;Temp;Humidity;BMP_temperature;BMP_pressure;BME280_temperature;BME280_humidity;BME280_pressure;Samples;Min_cycle;Max_cycle;Signal;HPM_P1;HPM_P2
2023/10/22 00:01:17;;;;;;;5.60;2.63;;;;;;;;;;5055719;28;20505;-64
2023/10/22 00:04:06;;;;;;;4.80;2.40;;;;;;;;;;5047210;28;20131;-63
2023/10/22 00:06:59;;;;;;;6.07;2.75;;;;;;;;;;5050012;28;20048;-64
2023/10/22 00:09:54;;;;;;;4.55;2.65;;;;;;;;;;5049774;28;20061;-65
2023/10/22 00:12:47;;;;;;;3.15;2.10;;;;;;;;;;5050203;28;20049;-64
2023/10/22 00:15:34;;;;;;;7.38;2.45;;;;;;;;;;5052334;28;20102;-49
2023/10/22 00:18:07;;;;;;;7.28;2.67;;;;;;;;;;5055039;28;20497;-49
2023/10/22 00:20:38;;;;;;;4.55;2.95;;;;;;;;;;5049020;28;20433;-52
2023/10/22 00:23:32;;;;;;;4.88;3.03;;;;;;;;;;5049911;28;20500;-47
2023/10/22 00:26:26;;;;;;;9.32;2.88;;;;;;;;;;5047650;28;20056;-52
2023/10/22 00:29:20;;;;;;;3.38;2.45;;;;;;;;;;5050584;28;20136;-52
2023/10/22 00:32:07;;;;;;;4.57;2.65;;;;;;;;;;5052823;28;20056;-50
2023/10/22 00:35:01;;;;;;;6.03;3.00;;;;;;;;;;5052742;28;20049;-64
2023/10/22 00:37:48;;;;;;;4.85;2.90;;;;;;;;;;5052226;28;20048;-64
2023/10/22 00:40:42;;;;;;;7.07;3.15;;;;;;;;;;5051719;28;20081;-64
2023/10/22 00:43:29;;;;;;;5.35;2.95;;;;;;;;;;5049181;28;20139;-64
2023/10/22 00:46:23;;;;;;;5.93;2.83;;;;;;;;;;5053968;28;20048;-64
2023/10/22 00:49:11;;;;;;;5.78;3.33;;;;;;;;;;5047127;28;20110;-64
2023/10/22 00:52:05;;;;;;;8.57;3.20;;;;;;;;;;5052885;28;20401;-62
2023/10/22 00:54:52;;;;;;;9.38;2.95;;;;;;;;;;5048166;28;20069;-61
2023/10/22 00:57:47;;;;;;;5.50;3.25;;;;;;;;;;5050028;28;20060;-59
2023/10/22 01:00:35;;;;;;;8.02;3.20;;;;;;;;;;5046668;28;20056;-60
2023/10/22 01:03:29;;;;;;;5.05;3.13;;;;;;;;;;5049912;28;20048;-59
2023/10/22 01:06:23;;;;;;;3.75;2.63;;;;;;;;;;5051021;28;20049;-59
2023/10/22 01:09:11;;;;;;;6.32;2.90;;;;;;;;;;5050115;28;20499;-59
2023/10/22 01:12:10;;;;;;;6.65;3.08;;;;;;;;;;5054100;28;20041;-62
2023/10/22 01:14:57;;;;;;;7.13;3.17;;;;;;;;;;5049435;28;20190;-50
2023/10/22 01:17:51;;;;;;;4.75;3.30;;;;;;;;;;5049726;28;20130;-46
2023/10/22 01:20:39;;;;;;;7.22;3.20;;;;;;;;;;5051883;28;20048;-51
2023/10/22 01:23:36;;;;;;;5.70;3.10;;;;;;;;;;5048677;28;20143;-48
2023/10/22 01:26:24;;;;;;;6.20;3.20;;;;;;;;;;5052244;28;20789;-49
2023/10/22 01:29:17;;;;;;;6.40;3.22;;;;;;;;;;5051307;28;20141;-61
2023/10/22 01:32:05;;;;;;;6.60;3.30;;;;;;;;;;5051163;28;20142;-60
2023/10/22 01:34:59;;;;;;;7.00;3.22;;;;;;;;;;5049608;28;20139;-59
2023/10/22 01:37:46;;;;;;;8.43;2.95;;;;;;;;;;5053207;28;20091;-59
2023/10/22 01:40:39;;;;;;;8.10;3.10;;;;;;;;;;5052836;28;20048;-59
2023/10/22 01:43:27;;;;;;;9.60;3.33;;;;;;;;;;5050430;28;20460;-60
2023/10/22 01:46:20;;;;;;;5.25;3.20;;;;;;;;;;5050351;28;20078;-59
2023/10/22 01:49:09;;;;;;;6.60;3.50;;;;;;;;;;5047336;28;20091;-64
2023/10/22 01:52:03;;;;;;;6.97;3.22;;;;;;;;;;5046108;28;20079;-60
2023/10/22 01:54:50;;;;;;;9.23;4.00;;;;;;;;;;5046424;28;20050;-59
2023/10/22 01:57:44;;;;;;;5.57;3.40;;;;;;;;;;5050162;28;20056;-60
2023/10/22 02:00:32;;;;;;;8.98;3.72;;;;;;;;;;5049808;28;20052;-59
2023/10/22 02:03:24;;;;;;;4.75;3.28;;;;;;;;;;5051345;28;20044;-60
2023/10/22 02:06:12;;;;;;;5.35;3.20;;;;;;;;;;5049260;28;20641;-58
2023/10/22 02:09:08;;;;;;;5.10;3.20;;;;;;;;;;5048973;28;20041;-68
2023/10/22 02:12:00;;;;;;;6.93;3.50;;;;;;;;;;5012438;28;20075;-67
2023/10/22 02:14:54;;;;;;;6.50;3.08;;;;;;;;;;5015903;28;21635;-67
2023/10/22 02:17:42;;;;;;;6.55;4.05;;;;;;;;;;5010171;28;20064;-66
2023/10/22 02:20:37;;;;;;;7.00;3.63;;;;;;;;;;5013614;28;20072;-65
2023/10/22 02:23:24;;;;;;;6.65;3.97;;;;;;;;;;5017704;28;20053;-54
2023/10/22 02:26:19;;;;;;;5.35;3.58;;;;;;;;;;5014841;28;20051;-63
2023/10/22 02:29:07;;;;;;;7.68;3.78;;;;;;;;;;5017300;28;20498;-59
2023/10/22 02:32:00;;;;;;;4.70;3.67;;;;;;;;;;5015761;28;20046;-59
2023/10/22 02:34:48;;;;;;;6.50;3.42;;;;;;;;;;5016125;28;20066;-59
2023/10/22 02:37:41;;;;;;;8.05;3.45;;;;;;;;;;5013077;28;20095;-59
2023/10/22 02:40:29;;;;;;;6.40;3.35;;;;;;;;;;5013899;28;20041;-59
2023/10/22 02:43:22;;;;;;;4.88;3.40;;;;;;;;;;5012211;28;20107;-58
2023/10/22 02:46:10;;;;;;;9.35;3.75;;;;;;;;;;5012188;28;20077;-62
2023/10/22 02:49:04;;;;;;;6.40;3.60;;;;;;;;;;5008781;28;20057;-63
2023/10/22 02:51:52;;;;;;;6.55;3.50;;;;;;;;;;5014626;28;20162;-62
2023/10/22 02:54:44;;;;;;;6.53;3.88;;;;;;;;;;5011751;28;20049;-63
2023/10/22 02:57:32;;;;;;;10.15;3.90;;;;;;;;;;5011663;28;20131;-63
2023/10/22 03:00:25;;;;;;;9.55;3.97;;;;;;;;;;5012865;28;20046;-51
2023/10/22 03:03:14;;;;;;;6.00;3.50;;;;;;;;;;5011769;28;20246;-59
2023/10/22 03:06:08;;;;;;;10.88;4.15;;;;;;;;;;5010471;28;20279;-58
2023/10/22 03:08:55;;;;;;;6.97;3.60;;;;;;;;;;5015275;28;20058;-59
2023/10/22 03:11:55;;;;;;;6.50;3.47;;;;;;;;;;5051067;28;20485;-59
2023/10/22 03:14:42;;;;;;;8.48;3.70;;;;;;;;;;5053348;28;20045;-59
2023/10/22 03:17:37;;;;;;;12.82;4.28;;;;;;;;;;5051779;28;20053;-59
2023/10/22 03:20:33;;;;;;;11.20;4.20;;;;;;;;;;5054405;28;20074;-53
2023/10/22 03:23:18;;;;;;;10.32;4.43;;;;;;;;;;5052906;28;20040;-63
2023/10/22 03:26:19;;;;;;;8.18;4.13;;;;;;;;;;5054704;28;20099;-62
2023/10/22 03:29:06;;;;;;;5.97;3.63;;;;;;;;;;5054484;28;20056;-63
2023/10/22 03:32:00;;;;;;;8.80;3.95;;;;;;;;;;5055525;28;20127;-63
2023/10/22 03:34:47;;;;;;;12.10;4.78;;;;;;;;;;5053901;28;20048;-63
2023/10/22 03:37:41;;;;;;;7.40;4.25;;;;;;;;;;5051675;28;20044;-50
2023/10/22 03:40:28;;;;;;;10.07;4.45;;;;;;;;;;5051720;28;20076;-58
2023/10/22 03:43:22;;;;;;;8.07;4.57;;;;;;;;;;5052790;28;20135;-59
2023/10/22 03:46:09;;;;;;;10.05;4.60;;;;;;;;;;5050765;28;20049;-58
2023/10/22 03:49:03;;;;;;;9.77;4.28;;;;;;;;;;5050627;28;20049;-59
2023/10/22 03:51:50;;;;;;;9.85;4.47;;;;;;;;;;5053903;28;20102;-59
2023/10/22 03:54:44;;;;;;;12.50;4.75;;;;;;;;;;5050868;28;20158;-59
2023/10/22 03:57:31;;;;;;;13.68;4.88;;;;;;;;;;5049223;28;20053;-59
2023/10/22 04:00:26;;;;;;;10.95;4.13;;;;;;;;;;5053357;28;20040;-58
2023/10/22 04:03:13;;;;;;;11.57;5.57;;;;;;;;;;5050941;28;20052;-58
2023/10/22 04:06:07;;;;;;;7.40;4.20;;;;;;;;;;5055122;28;20052;-58
2023/10/22 04:08:54;;;;;;;6.20;3.53;;;;;;;;;;5051945;28;20041;-58
2023/10/22 04:11:54;;;;;;;9.48;4.30;;;;;;;;;;5050120;28;20052;-56
2023/10/22 04:14:42;;;;;;;6.28;3.60;;;;;;;;;;5052708;28;20125;-58
2023/10/22 04:17:36;;;;;;;6.55;3.65;;;;;;;;;;5052337;28;20041;-62
2023/10/22 04:20:23;;;;;;;9.90;3.60;;;;;;;;;;5056752;28;20071;-62
2023/10/22 04:23:18;;;;;;;8.35;3.75;;;;;;;;;;5054411;28;20048;-62
2023/10/22 04:26:12;;;;;;;7.55;3.58;;;;;;;;;;5053257;28;20494;-62
2023/10/22 04:29:06;;;;;;;8.57;3.90;;;;;;;;;;5053009;28;20524;-62
2023/10/22 04:31:53;;;;;;;9.60;3.85;;;;;;;;;;5048875;28;20501;-62
2023/10/22 04:34:47;;;;;;;6.22;3.55;;;;;;;;;;5050686;28;20114;-66
2023/10/22 04:37:34;;;;;;;9.27;3.42;;;;;;;;;;5051285;28;20084;-67
2023/10/22 04:40:34;;;;;;;6.18;3.38;;;;;;;;;;5051093;28;20044;-67
2023/10/22 04:43:21;;;;;;;7.10;3.83;;;;;;;;;;5049204;28;20059;-67
2023/10/22 04:46:15;;;;;;;7.32;4.10;;;;;;;;;;5048510;28;20041;-67
2023/10/22 04:49:09;;;;;;;10.02;4.10;;;;;;;;;;5051598;28;20490;-67
2023/10/22 04:51:57;;;;;;;5.97;4.03;;;;;;;;;;5051342;28;20056;-63
2023/10/22 04:54:51;;;;;;;6.82;3.67;;;;;;;;;;5051142;28;20153;-64
2023/10/22 04:57:38;;;;;;;8.85;3.78;;;;;;;;;;5050924;28;20049;-63
2023/10/22 05:00:31;;;;;;;6.78;3.70;;;;;;;;;;5048634;28;20150;-64
2023/10/22 05:03:19;;;;;;;5.60;3.40;;;;;;;;;;5050539;28;20110;-63
2023/10/22 05:06:13;;;;;;;7.80;2.97;;;;;;;;;;5053600;28;20052;-64
2023/10/22 05:09:01;;;;;;;7.50;3.20;;;;;;;;;;5050778;28;20048;-60
2023/10/22 05:12:00;;;;;;;9.63;3.25;;;;;;;;;;5051528;28;20060;-56
2023/10/22 05:14:54;;;;;;;6.32;2.92;;;;;;;;;;5050094;28;20603;-53
2023/10/22 05:17:47;;;;;;;4.50;2.90;;;;;;;;;;5052248;28;20151;-53
2023/10/22 05:20:42;;;;;;;4.72;3.13;;;;;;;;;;5049449;28;20405;-56
2023/10/22 05:23:36;;;;;;;7.10;2.83;;;;;;;;;;5049374;28;20053;-52
2023/10/22 05:26:23;;;;;;;6.75;2.97;;;;;;;;;;5048233;28;20051;-53
2023/10/22 05:29:17;;;;;;;4.20;3.00;;;;;;;;;;5051764;28;20041;-56
2023/10/22 05:32:04;;;;;;;5.32;2.90;;;;;;;;;;5050145;28;20061;-63
2023/10/22 05:34:57;;;;;;;3.72;2.67;;;;;;;;;;5048499;28;20048;-61
2023/10/22 05:37:51;;;;;;;4.40;2.85;;;;;;;;;;5048903;28;20056;-62
2023/10/22 05:40:39;;;;;;;4.03;2.22;;;;;;;;;;5051107;28;20067;-63
2023/10/22 05:43:32;;;;;;;6.55;2.50;;;;;;;;;;5048994;28;20076;-63
2023/10/22 05:46:27;;;;;;;5.82;2.67;;;;;;;;;;5048572;28;20130;-60
2023/10/22 05:49:20;;;;;;;7.43;2.80;;;;;;;;;;5047227;28;20045;-58
2023/10/22 05:52:14;;;;;;;4.50;2.58;;;;;;;;;;5051850;28;20057;-59
2023/10/22 05:55:02;;;;;;;5.10;2.60;;;;;;;;;;5049359;28;20547;-58
2023/10/22 05:57:55;;;;;;;6.40;2.47;;;;;;;;;;5050697;28;20122;-59
2023/10/22 06:00:48;;;;;;;3.90;2.72;;;;;;;;;;5050333;28;20708;-58
2023/10/22 06:03:42;;;;;;;2.42;1.95;;;;;;;;;;5051335;28;20056;-59
2023/10/22 06:06:35;;;;;;;3.78;2.60;;;;;;;;;;5049926;28;20072;-63
2023/10/22 06:09:30;;;;;;;6.40;2.70;;;;;;;;;;5047078;28;20051;-59
2023/10/22 06:12:24;;;;;;;3.97;2.55;;;;;;;;;;5050027;28;20479;-59
2023/10/22 06:15:18;;;;;;;3.42;2.67;;;;;;;;;;5047184;28;20045;-59
2023/10/22 06:18:06;;;;;;;4.25;2.53;;;;;;;;;;5049951;28;20991;-58
2023/10/22 06:21:00;;;;;;;3.50;2.20;;;;;;;;;;5052722;28;20043;-58
2023/10/22 06:23:54;;;;;;;4.80;2.50;;;;;;;;;;5051970;28;20057;-62
2023/10/22 06:26:41;;;;;;;3.95;2.30;;;;;;;;;;5048658;28;20579;-63
2023/10/22 06:29:35;;;;;;;3.88;2.50;;;;;;;;;;5052870;28;20049;-62
2023/10/22 06:32:22;;;;;;;5.47;2.63;;;;;;;;;;5056966;28;20036;-62
2023/10/22 06:35:16;;;;;;;4.32;2.53;;;;;;;;;;5051595;28;20087;-62
2023/10/22 06:38:04;;;;;;;4.55;2.45;;;;;;;;;;5049049;28;20209;-62
2023/10/22 06:40:58;;;;;;;2.90;2.10;;;;;;;;;;5050601;28;20044;-59
2023/10/22 06:43:45;;;;;;;5.25;2.38;;;;;;;;;;5052702;28;20059;-58
2023/10/22 06:46:38;;;;;;;4.40;2.13;;;;;;;;;;5052255;28;20533;-58
2023/10/22 06:49:26;;;;;;;3.83;2.40;;;;;;;;;;5054618;28;20041;-58
2023/10/22 06:52:20;;;;;;;4.57;2.70;;;;;;;;;;5054654;28;20060;-58
2023/10/22 06:55:07;;;;;;;3.22;2.25;;;;;;;;;;5053309;28;20695;-58
2023/10/22 06:58:02;;;;;;;4.50;2.50;;;;;;;;;;5050772;28;21007;-59
2023/10/22 07:00:49;;;;;;;4.45;2.15;;;;;;;;;;5050823;28;20106;-63
2023/10/22 07:03:44;;;;;;;2.70;1.70;;;;;;;;;;5055650;28;20139;-66
2023/10/22 07:06:33;;;;;;;4.55;2.25;;;;;;;;;;5052421;28;20545;-66
2023/10/22 07:09:33;;;;;;;2.60;2.15;;;;;;;;;;5054883;28;20052;-66
2023/10/22 07:12:27;;;;;;;3.17;2.00;;;;;;;;;;5053559;28;20065;-66
2023/10/22 07:15:21;;;;;;;3.10;2.25;;;;;;;;;;5052753;28;21208;-66
2023/10/22 07:18:15;;;;;;;4.22;2.17;;;;;;;;;;5052114;28;20130;-60
2023/10/22 07:21:02;;;;;;;3.30;2.17;;;;;;;;;;5052391;28;20041;-59
2023/10/22 07:23:57;;;;;;;5.90;2.25;;;;;;;;;;5051119;28;20056;-58
2023/10/22 07:26:43;;;;;;;2.90;2.40;;;;;;;;;;5051447;28;20059;-58
2023/10/22 07:29:37;;;;;;;2.28;1.88;;;;;;;;;;5055567;28;20481;-59
2023/10/22 07:32:24;;;;;;;3.03;2.03;;;;;;;;;;5052440;28;20040;-59
2023/10/22 07:35:19;;;;;;;2.25;1.75;;;;;;;;;;5047864;28;20126;-59
2023/10/22 07:38:06;;;;;;;2.75;1.63;;;;;;;;;;5044616;28;20052;-65
2023/10/22 07:41:00;;;;;;;2.75;2.10;;;;;;;;;;5040618;28;20126;-59
2023/10/22 07:43:48;;;;;;;3.47;2.20;;;;;;;;;;5039055;28;20122;-58
2023/10/22 07:46:42;;;;;;;3.70;2.00;;;;;;;;;;5044485;28;20131;-58
2023/10/22 07:49:29;;;;;;;2.97;1.80;;;;;;;;;;5043025;28;20045;-58
2023/10/22 07:52:22;;;;;;;4.53;2.00;;;;;;;;;;5044562;28;20137;-58
2023/10/22 07:55:10;;;;;;;2.53;1.77;;;;;;;;;;5042588;28;20056;-49
2023/10/22 07:58:04;;;;;;;1.83;1.52;;;;;;;;;;5052705;28;21825;-62
2023/10/22 08:00:51;;;;;;;2.15;1.90;;;;;;;;;;5050184;28;20908;-62
2023/10/22 08:03:45;;;;;;;2.97;1.90;;;;;;;;;;5054205;28;20075;-63
2023/10/22 08:06:32;;;;;;;5.78;2.05;;;;;;;;;;5048694;28;23813;-62
2023/10/22 08:09:20;;;;;;;4.60;2.20;;;;;;;;;;5047600;28;20518;-63
2023/10/22 08:12:21;;;;;;;3.47;1.98;;;;;;;;;;5052865;28;20049;-63
2023/10/22 08:15:09;;;;;;;3.67;2.10;;;;;;;;;;5052494;28;20526;-59
2023/10/22 08:17:57;;;;;;;2.25;1.90;;;;;;;;;;5050979;28;20076;-58
2023/10/22 08:20:44;;;;;;;4.78;1.83;;;;;;;;;;5049836;28;20052;-59
2023/10/22 08:23:39;;;;;;;2.70;1.80;;;;;;;;;;5049082;28;20147;-58
2023/10/22 08:26:26;;;;;;;2.70;2.00;;;;;;;;;;5049896;28;20044;-58
2023/10/22 08:29:20;;;;;;;5.68;1.75;;;;;;;;;;5046827;28;20088;-59
2023/10/22 08:32:07;;;;;;;5.75;1.75;;;;;;;;;;5045719;28;20053;-59
2023/10/22 08:35:04;;;;;;;4.40;1.58;;;;;;;;;;5046418;28;20045;-58
2023/10/22 08:37:51;;;;;;;2.78;1.67;;;;;;;;;;5049526;28;20055;-57
2023/10/22 08:40:45;;;;;;;4.20;1.60;;;;;;;;;;5043869;28;20109;-58
2023/10/22 08:43:32;;;;;;;5.60;1.88;;;;;;;;;;5044639;28;20083;-58
2023/10/22 08:46:27;;;;;;;3.33;1.75;;;;;;;;;;5043482;28;20075;-60
2023/10/22 08:49:06;;;;;;;1.92;1.45;;;;;;;;;;5041552;28;20130;-59
2023/10/22 08:52:00;;;;;;;2.35;1.30;;;;;;;;;;5050435;28;20678;-59
2023/10/22 08:54:47;;;;;;;4.22;1.73;;;;;;;;;;5042500;28;20056;-59
2023/10/22 08:57:41;;;;;;;4.70;1.70;;;;;;;;;;5044108;28;20089;-59
2023/10/22 09:00:29;;;;;;;4.70;1.70;;;;;;;;;;5040762;28;20564;-59
2023/10/22 09:03:28;;;;;;;2.92;1.80;;;;;;;;;;5051340;28;20311;-59
2023/10/22 09:06:15;;;;;;;5.25;1.90;;;;;;;;;;5049223;28;20060;-58
2023/10/22 09:08:49;;;;;;;4.88;1.80;;;;;;;;;;5047452;28;20105;-59
2023/10/22 09:11:54;;;;;;;2.30;1.80;;;;;;;;;;5046560;28;20158;-51
2023/10/22 09:14:48;;;;;;;3.38;1.90;;;;;;;;;;5044696;28;20505;-51
2023/10/22 09:17:35;;;;;;;5.75;2.20;;;;;;;;;;5049828;28;20699;-50
2023/10/22 09:20:34;;;;;;;4.97;2.25;;;;;;;;;;5047446;28;20044;-48
2023/10/22 09:23:23;;;;;;;5.47;2.53;;;;;;;;;;5048637;28;20052;-46
2023/10/22 09:26:17;;;;;;;5.38;2.80;;;;;;;;;;5045823;28;20040;-51
2023/10/22 09:29:04;;;;;;;7.15;2.90;;;;;;;;;;5044225;28;20132;-59
2023/10/22 09:31:53;;;;;;;;;;;;;;;;;;5049180;28;20147;-59
2023/10/22 09:34:27;;;;;;;4.05;1.95;;;;;;;;;;5047311;28;20038;-58
2023/10/22 09:37:02;;;;;;;4.85;1.90;;;;;;;;;;5046734;28;20051;-59
2023/10/22 09:39:49;;;;;;;2.33;1.73;;;;;;;;;;5050461;28;20475;-59
2023/10/22 09:42:43;;;;;;;3.50;1.95;;;;;;;;;;5051564;28;21853;-59
2023/10/22 09:45:31;;;;;;;2.05;1.25;;;;;;;;;;5050215;28;20488;-60
2023/10/22 09:48:26;;;;;;;2.97;1.95;;;;;;;;;;5049656;28;20060;-58
2023/10/22 09:51:15;;;;;;;4.63;1.65;;;;;;;;;;5051027;28;20048;-59
2023/10/22 09:54:09;;;;;;;2.60;1.60;;;;;;;;;;5051659;28;20113;-58
2023/10/22 09:57:06;;;;;;;3.55;1.83;;;;;;;;;;5055424;28;20422;-59
2023/10/22 10:00:08;;;;;;;4.07;1.55;;;;;;;;;;5049673;28;20045;-59
2023/10/22 10:03:03;;;;;;;2.17;1.55;;;;;;;;;;5049553;28;20052;-65
2023/10/22 10:05:56;;;;;;;4.15;1.90;;;;;;;;;;5049729;28;20045;-59
2023/10/22 10:08:44;;;;;;;4.97;1.63;;;;;;;;;;5051981;28;20044;-59
2023/10/22 10:11:38;;;;;;;2.75;1.58;;;;;;;;;;5048858;28;20052;-58
2023/10/22 10:14:54;;;;;;;2.55;1.70;;;;;;;;;;5048026;28;20061;-58
2023/10/22 10:17:55;;;;;;;3.30;1.90;;;;;;;;;;5054954;28;20049;-58
2023/10/22 10:20:50;;;;;;;4.50;2.30;;;;;;;;;;5051150;28;20147;-58
2023/10/22 10:23:56;;;;;;;4.22;2.45;;;;;;;;;;5055383;28;20060;-59
2023/10/22 10:26:51;;;;;;;5.82;2.40;;;;;;;;;;5053314;28;20057;-59
2023/10/22 10:29:39;;;;;;;5.00;2.70;;;;;;;;;;5037613;28;20149;-59
2023/10/22 10:32:41;;;;;;;11.27;3.97;;;;;;;;;;5052326;28;20048;-59
2023/10/22 10:35:44;;;;;;;5.80;2.78;;;;;;;;;;5055665;28;20529;-59
2023/10/22 10:38:30;;;;;;;3.83;2.55;;;;;;;;;;5054591;28;20520;-59
2023/10/22 10:41:43;;;;;;;4.53;2.42;;;;;;;;;;5051983;28;20044;-58
2023/10/22 10:45:03;;;;;;;6.65;2.30;;;;;;;;;;5049842;28;20682;-47
2023/10/22 10:47:57;;;;;;;5.05;2.22;;;;;;;;;;5051376;28;20050;-49
2023/10/22 10:50:44;;;;;;;4.35;2.35;;;;;;;;;;5050220;28;20061;-47
2023/10/22 10:53:57;;;;;;;5.68;2.08;;;;;;;;;;5052227;28;21934;-48
2023/10/22 10:56:47;;;;;;;3.63;2.00;;;;;;;;;;5053016;28;20566;-51
2023/10/22 10:59:41;;;;;;;3.95;1.90;;;;;;;;;;5055183;28;20049;-65
2023/10/22 11:02:28;;;;;;;3.17;1.67;;;;;;;;;;5050915;28;20075;-65
2023/10/22 11:05:32;;;;;;;4.85;1.83;;;;;;;;;;5051578;28;20047;-65
2023/10/22 11:08:20;;;;;;;2.47;1.70;;;;;;;;;;5053664;28;21058;-65
2023/10/22 11:11:25;;;;;;;2.60;1.80;;;;;;;;;;5052020;28;20133;-65
2023/10/22 11:14:20;;;;;;;3.83;1.70;;;;;;;;;;5051590;28;21069;-65
2023/10/22 11:17:14;;;;;;;4.05;1.52;;;;;;;;;;5051850;28;20557;-58
2023/10/22 11:20:03;;;;;;;2.33;1.70;;;;;;;;;;5056006;28;20040;-59
2023/10/22 11:22:55;;;;;;;3.90;1.80;;;;;;;;;;5053585;28;22363;-59
2023/10/22 11:25:42;;;;;;;2.45;1.60;;;;;;;;;;5053112;28;20076;-59
2023/10/22 11:28:36;;;;;;;1.63;1.33;;;;;;;;;;5051261;28;20057;-59
2023/10/22 11:31:23;;;;;;;3.22;1.67;;;;;;;;;;5043845;28;20056;-59
2023/10/22 11:34:18;;;;;;;3.03;1.55;;;;;;;;;;5052982;28;20048;-59
2023/10/22 11:37:07;;;;;;;5.28;1.63;;;;;;;;;;5050709;28;20044;-59
2023/10/22 11:40:01;;;;;;;6.72;1.88;;;;;;;;;;5049440;28;20516;-60
2023/10/22 11:42:48;;;;;;;3.05;1.55;;;;;;;;;;5047983;28;20056;-60
2023/10/22 11:45:52;;;;;;;2.60;1.50;;;;;;;;;;5047535;28;20551;-59
2023/10/22 11:48:44;;;;;;;4.68;2.10;;;;;;;;;;5048975;28;20059;-59
2023/10/22 11:51:44;;;;;;;2.65;1.63;;;;;;;;;;5049060;28;20137;-59
2023/10/22 11:54:38;;;;;;;2.28;1.63;;;;;;;;;;5053200;28;20080;-64
2023/10/22 11:57:33;;;;;;;6.35;1.52;;;;;;;;;;5051177;28;20048;-65
2023/10/22 12:00:27;;;;;;;3.38;1.67;;;;;;;;;;5050267;28;20053;-65
2023/10/22 12:03:15;;;;;;;2.25;1.48;;;;;;;;;;5047657;28;20063;-65
2023/10/22 12:06:09;;;;;;;3.60;1.52;;;;;;;;;;5049584;28;21151;-65
2023/10/22 12:08:56;;;;;;;2.25;1.50;;;;;;;;;;5051101;28;20041;-65
2023/10/22 12:11:52;;;;;;;3.47;1.50;;;;;;;;;;5044538;28;20056;-63
2023/10/22 12:14:44;;;;;;;2.10;1.60;;;;;;;;;;5051590;28;20543;-59
2023/10/22 12:17:32;;;;;;;4.18;1.75;;;;;;;;;;5048842;28;20053;-60
2023/10/22 12:20:26;;;;;;;3.58;1.65;;;;;;;;;;5050011;28;20051;-60
2023/10/22 12:23:13;;;;;;;2.38;1.35;;;;;;;;;;5050194;28;20052;-60
2023/10/22 12:26:16;;;;;;;4.20;1.55;;;;;;;;;;5044167;28;20048;-59
2023/10/22 12:29:03;;;;;;;3.03;1.50;;;;;;;;;;5048185;28;20101;-59
2023/10/22 12:31:57;;;;;;;4.97;1.67;;;;;;;;;;5047019;28;20059;-64
2023/10/22 12:34:44;;;;;;;3.35;1.70;;;;;;;;;;5049973;28;20478;-45
2023/10/22 12:37:38;;;;;;;2.10;1.55;;;;;;;;;;5046535;28;20072;-46
2023/10/22 12:40:12;;;;;;;2.17;1.77;;;;;;;;;;5030496;28;20171;-45
2023/10/22 12:42:59;;;;;;;7.30;1.80;;;;;;;;;;5049183;28;21616;-48
2023/10/22 12:45:52;;;;;;;5.78;1.60;;;;;;;;;;5047168;28;20048;-48
2023/10/22 12:48:40;;;;;;;5.40;1.70;;;;;;;;;;5046641;28;20061;-60
2023/10/22 12:51:34;;;;;;;1.73;1.45;;;;;;;;;;5045995;28;20106;-57
2023/10/22 12:54:21;;;;;;;2.22;1.80;;;;;;;;;;5043908;28;20060;-58
2023/10/22 12:57:14;;;;;;;4.97;1.77;;;;;;;;;;5045734;28;20107;-57
2023/10/22 13:00:06;;;;;;;3.60;2.08;;;;;;;;;;5044554;28;20053;-57
2023/10/22 13:03:00;;;;;;;2.35;1.80;;;;;;;;;;5049941;28;20599;-57
2023/10/22 13:05:49;;;;;;;2.88;1.90;;;;;;;;;;5050211;28;20121;-57
2023/10/22 13:08:42;;;;;;;2.20;1.70;;;;;;;;;;5049068;28;20048;-58
2023/10/22 13:11:37;;;;;;;2.28;1.58;;;;;;;;;;5043629;28;20447;-64
2023/10/22 13:14:30;;;;;;;6.07;1.83;;;;;;;;;;5049693;28;20493;-63
2023/10/22 13:17:17;;;;;;;4.10;2.00;;;;;;;;;;5052881;28;20135;-64
2023/10/22 13:19:52;;;;;;;1.92;1.67;;;;;;;;;;5047992;28;22199;-64
2023/10/22 13:22:39;;;;;;;1.77;1.67;;;;;;;;;;5048075;28;20408;-63
2023/10/22 13:25:33;;;;;;;6.60;1.92;;;;;;;;;;5048814;28;20492;-62
2023/10/22 13:28:20;;;;;;;2.65;1.70;;;;;;;;;;5051206;28;20133;-60
2023/10/22 13:31:14;;;;;;;5.03;1.83;;;;;;;;;;5051526;28;20401;-61
2023/10/22 13:34:01;;;;;;;5.90;1.90;;;;;;;;;;5050351;28;20549;-62
2023/10/22 13:36:55;;;;;;;2.35;2.10;;;;;;;;;;5050669;28;20060;-61
2023/10/22 13:39:42;;;;;;;4.57;1.80;;;;;;;;;;5046184;28;20139;-61
2023/10/22 13:42:36;;;;;;;2.70;1.95;;;;;;;;;;5050800;28;20467;-60
2023/10/22 13:45:23;;;;;;;2.92;1.98;;;;;;;;;;5047573;28;20114;-61
2023/10/22 13:48:17;;;;;;;3.53;2.05;;;;;;;;;;5048889;28;20067;-58
2023/10/22 13:51:07;;;;;;;2.80;2.08;;;;;;;;;;5045809;28;20075;-58
2023/10/22 13:54:01;;;;;;;3.13;1.95;;;;;;;;;;5047375;28;20048;-57
2023/10/22 13:56:55;;;;;;;2.67;1.85;;;;;;;;;;5046849;28;20041;-57
2023/10/22 13:59:42;;;;;;;3.65;2.10;;;;;;;;;;5050642;28;20083;-58
2023/10/22 14:02:40;;;;;;;2.28;1.95;;;;;;;;;;5045271;28;20472;-61
2023/10/22 14:05:27;;;;;;;3.30;2.20;;;;;;;;;;5047602;28;20317;-48
2023/10/22 14:08:21;;;;;;;4.53;2.40;;;;;;;;;;5045878;28;20068;-48
2023/10/22 14:11:29;;;;;;;2.92;2.13;;;;;;;;;;5047358;28;20140;-50
2023/10/22 14:14:24;;;;;;;6.70;2.50;;;;;;;;;;5040809;28;20075;-46
2023/10/22 14:17:12;;;;;;;5.97;2.17;;;;;;;;;;5046215;28;20052;-50
2023/10/22 14:19:46;;;;;;;5.18;2.67;;;;;;;;;;5045909;28;20701;-47
2023/10/22 14:22:33;;;;;;;4.65;2.13;;;;;;;;;;5047539;28;20053;-53
2023/10/22 14:25:27;;;;;;;6.00;2.30;;;;;;;;;;5048874;28;20060;-51
2023/10/22 14:28:14;;;;;;;7.57;2.22;;;;;;;;;;5040731;28;20571;-52
2023/10/22 14:31:08;;;;;;;3.38;1.95;;;;;;;;;;5040406;28;20114;-51
2023/10/22 14:33:56;;;;;;;5.00;1.92;;;;;;;;;;5041881;28;20057;-51
2023/10/22 14:36:51;;;;;;;4.75;2.30;;;;;;;;;;5040876;28;20052;-49
2023/10/22 14:39:46;;;;;;;3.22;2.20;;;;;;;;;;5044801;28;20688;-57
2023/10/22 14:42:33;;;;;;;4.72;2.50;;;;;;;;;;5049445;28;20044;-59
2023/10/22 14:45:27;;;;;;;2.25;2.00;;;;;;;;;;5042340;28;20052;-59
2023/10/22 14:48:15;;;;;;;4.28;2.60;;;;;;;;;;5043440;28;20763;-59
2023/10/22 14:51:08;;;;;;;4.45;2.30;;;;;;;;;;5046929;28;21568;-59
2023/10/22 14:53:55;;;;;;;5.55;2.40;;;;;;;;;;5048051;28;20919;-59
2023/10/22 14:56:49;;;;;;;6.05;2.30;;;;;;;;;;5048232;28;20135;-58
2023/10/22 14:59:36;;;;;;;3.35;2.20;;;;;;;;;;5044543;28;20091;-47
2023/10/22 15:02:30;;;;;;;6.63;2.83;;;;;;;;;;5048303;28;20056;-50
2023/10/22 15:05:18;;;;;;;5.82;2.40;;;;;;;;;;5050272;28;20243;-51
2023/10/22 15:08:11;;;;;;;4.03;2.70;;;;;;;;;;5045328;28;20057;-54
2023/10/22 15:11:01;;;;;;;2.92;2.42;;;;;;;;;;5049540;28;20052;-50
2023/10/22 15:14:02;;;;;;;3.72;2.33;;;;;;;;;;5031848;28;20049;-51
2023/10/22 15:16:49;;;;;;;4.25;2.40;;;;;;;;;;5030368;28;21046;-61
2023/10/22 15:19:43;;;;;;;6.00;2.30;;;;;;;;;;5031403;28;20570;-49
2023/10/22 15:22:30;;;;;;;3.45;2.40;;;;;;;;;;5032514;28;20069;-45
2023/10/22 15:25:24;;;;;;;6.72;2.53;;;;;;;;;;5030514;28;20462;-48
2023/10/22 15:28:11;;;;;;;3.60;2.70;;;;;;;;;;5029033;28;20049;-50
2023/10/22 15:31:05;;;;;;;3.80;2.72;;;;;;;;;;5029494;28;20037;-50
2023/10/22 15:33:59;;;;;;;3.15;2.40;;;;;;;;;;5033274;28;20056;-57
2023/10/22 15:36:46;;;;;;;3.05;2.50;;;;;;;;;;5027826;28;20073;-63
2023/10/22 15:39:20;;;;;;;4.20;3.10;;;;;;;;;;5026860;28;20064;-58
2023/10/22 15:41:47;;;;;;;4.30;2.88;;;;;;;;;;5027893;28;20128;-57
2023/10/22 15:44:22;;;;;;;6.32;3.33;;;;;;;;;;5020721;28;20138;-58
2023/10/22 15:47:09;;;;;;;11.48;3.33;;;;;;;;;;5030288;28;20149;-58
2023/10/22 15:50:03;;;;;;;6.80;3.50;;;;;;;;;;5029589;28;20077;-58
2023/10/22 15:52:50;;;;;;;7.25;3.70;;;;;;;;;;5025956;28;20061;-60
2023/10/22 15:55:45;;;;;;;3.70;3.15;;;;;;;;;;5028099;28;20053;-58
2023/10/22 15:58:39;;;;;;;6.65;3.53;;;;;;;;;;5027511;28;20568;-58
2023/10/22 16:01:26;;;;;;;5.97;3.58;;;;;;;;;;5025886;28;20048;-58
2023/10/22 16:04:20;;;;;;;6.35;3.63;;;;;;;;;;5030606;28;20053;-58
2023/10/22 16:07:07;;;;;;;8.27;3.67;;;;;;;;;;5030817;28;20051;-57
2023/10/22 16:10:10;;;;;;;7.35;3.67;;;;;;;;;;5027458;28;20045;-58
2023/10/22 16:13:01;;;;;;;4.85;3.53;;;;;;;;;;5044019;28;20095;-54
2023/10/22 16:15:55;;;;;;;7.47;3.83;;;;;;;;;;5045882;28;20588;-63
2023/10/22 16:18:42;;;;;;;9.43;3.42;;;;;;;;;;5044145;28;20164;-63
2023/10/22 16:21:36;;;;;;;5.60;3.63;;;;;;;;;;5045712;28;20524;-63
2023/10/22 16:24:23;;;;;;;4.68;3.40;;;;;;;;;;5049339;28;20057;-63
2023/10/22 16:27:17;;;;;;;9.50;3.97;;;;;;;;;;5045763;28;20047;-63
2023/10/22 16:30:05;;;;;;;4.15;3.38;;;;;;;;;;5045528;28;20144;-47
2023/10/22 16:32:59;;;;;;;9.90;3.58;;;;;;;;;;5050198;28;20055;-60
2023/10/22 16:35:46;;;;;;;4.07;3.40;;;;;;;;;;5046169;28;20048;-59
2023/10/22 16:38:41;;;;;;;6.70;3.90;;;;;;;;;;5047821;28;20127;-59
2023/10/22 16:41:29;;;;;;;6.05;4.20;;;;;;;;;;5046655;28;20044;-59
2023/10/22 16:44:23;;;;;;;6.72;3.55;;;;;;;;;;5047522;28;20052;-59
2023/10/22 16:47:18;;;;;;;5.50;4.20;;;;;;;;;;5049015;28;20164;-59
2023/10/22 16:49:53;;;;;;;10.13;3.97;;;;;;;;;;5051462;28;20048;-59
2023/10/22 16:52:46;;;;;;;9.07;4.20;;;;;;;;;;5044069;28;20057;-64
2023/10/22 16:55:34;;;;;;;6.22;3.97;;;;;;;;;;5050234;28;20141;-64
2023/10/22 16:58:27;;;;;;;6.90;4.18;;;;;;;;;;5051296;28;20047;-64
2023/10/22 17:01:14;;;;;;;11.70;4.60;;;;;;;;;;5046804;28;20079;-66
2023/10/22 17:04:08;;;;;;;6.80;4.10;;;;;;;;;;5046167;28;20074;-65
2023/10/22 17:06:55;;;;;;;8.18;4.63;;;;;;;;;;5042086;28;20710;-48